Time;durP1;ratioP1;P1;durP2;ratioP2;P2;SDS_P1;SDS_P2;PMS_P1;PMS_P2;Temp;Humidity;BMP_temperature;BMP_pressure;BME280_temperature;BME280_humidity;BME280_pressure;Samples;Min_cycle;Max_cycle;Signal;HPM_P1;HPM_P2
2022/01/05 00:00:56;;;;;;;0.10;0.10;;;10.30;78.30;10.50;94859.00;;;;5008233;28;20222;-86
2022/01/05 00:03:23;;;;;;;2.50;0.20;;;10.40;78.50;10.50;94861.00;;;;4993520;28;20233;-85
2022/01/05 00:05:50;;;;;;;0.20;0.20;;;10.30;78.40;10.40;94851.00;;;;4995144;28;20240;-86
2022/01/05 00:08:18;;;;;;;2.23;0.13;;;10.30;78.60;10.40;94856.00;;;;5010087;28;20561;-85
2022/01/05 00:10:46;;;;;;;0.10;0.10;;;10.30;78.60;10.40;94852.00;;;;5007791;28;20198;-85
2022/01/05 00:13:13;;;;;;;0.07;0.07;;;10.30;78.70;10.40;94871.00;;;;5011921;28;20289;-85
2022/01/05 00:15:40;;;;;;;0.10;0.10;;;10.20;78.80;10.40;94874.00;;;;5012159;28;20213;-85
2022/01/05 00:18:08;;;;;;;0.10;0.10;;;10.30;78.90;10.40;94879.00;;;;5012458;28;20208;-85
2022/01/05 00:20:35;;;;;;;0.10;0.10;;;10.30;78.90;10.30;94869.00;;;;5003132;28;20582;-86
2022/01/05 00:23:03;;;;;;;0.50;0.07;;;10.20;78.70;10.30;94876.00;;;;5012020;28;20198;-85
2022/01/05 00:25:30;;;;;;;0.10;0.10;;;10.20;78.80;10.30;94891.00;;;;5012180;28;20300;-85
2022/01/05 00:27:57;;;;;;;0.17;0.10;;;10.10;78.80;10.30;94899.00;;;;4995462;28;20224;-86
2022/01/05 00:30:24;;;;;;;0.90;0.30;;;10.20;79.00;10.30;94902.00;;;;4993102;28;20218;-86
2022/01/05 00:32:51;;;;;;;0.27;0.10;;;10.10;79.00;10.20;94916.00;;;;4992994;28;20209;-85
2022/01/05 00:35:20;;;;;;;0.20;0.20;;;10.10;78.80;10.20;94917.00;;;;5012127;28;20221;-85
2022/01/05 00:37:47;;;;;;;0.20;0.20;;;10.10;78.90;10.20;94908.00;;;;5012760;28;20202;-85
2022/01/05 00:40:14;;;;;;;0.20;0.20;;;10.10;79.00;10.20;94921.00;;;;4992202;28;20233;-85
2022/01/05 00:42:41;;;;;;;0.83;0.13;;;10.10;78.80;10.10;94929.00;;;;4992995;28;20293;-86
2022/01/05 00:45:09;;;;;;;0.10;0.10;;;10.00;78.60;10.00;94932.00;;;;4993067;28;20234;-85
2022/01/05 00:47:36;;;;;;;0.07;0.03;;;10.00;78.50;10.00;94927.00;;;;5012077;28;20717;-86
2022/01/05 00:50:04;;;;;;;0.23;0.10;;;10.00;78.70;10.00;94929.00;;;;5011635;28;20290;-86
2022/01/05 00:52:32;;;;;;;0.33;0.20;;;9.90;78.60;9.90;94932.00;;;;4993056;28;20233;-85
2022/01/05 00:54:59;;;;;;;0.00;0.00;;;9.90;78.50;9.90;94938.00;;;;4992891;28;20203;-86
2022/01/05 00:57:26;;;;;;;0.10;0.00;;;9.80;78.40;9.80;94937.00;;;;4999514;28;20624;-85
2022/01/05 00:59:53;;;;;;;0.10;0.10;;;9.80;78.40;9.80;94926.00;;;;5012443;28;20230;-86
2022/01/05 01:02:21;;;;;;;1.07;0.10;;;9.80;78.40;9.70;94925.00;;;;5012733;28;20202;-85
2022/01/05 01:04:48;;;;;;;0.00;0.00;;;9.70;78.30;9.60;94934.00;;;;4997731;28;20194;-85
2022/01/05 01:07:15;;;;;;;0.83;0.10;;;9.70;78.30;9.60;94922.00;;;;4992774;28;20623;-85
2022/01/05 01:09:43;;;;;;;0.03;0.03;;;9.60;78.50;9.60;94924.00;;;;4992767;28;20218;-86
2022/01/05 01:12:11;;;;;;;0.83;0.10;;;9.60;78.50;9.50;94921.00;;;;4996201;28;20190;-85
2022/01/05 01:14:38;;;;;;;0.23;0.00;;;9.50;78.50;9.50;94930.00;;;;5005546;28;20198;-85
2022/01/05 01:17:06;;;;;;;0.10;0.00;;;9.50;78.60;9.40;94925.00;;;;5011081;28;20219;-85
2022/01/05 01:19:33;;;;;;;0.33;0.20;;;9.50;78.50;9.40;94940.00;;;;5009269;28;20678;-85
2022/01/05 01:22:00;;;;;;;4.17;0.73;;;9.40;78.50;9.40;94940.00;;;;5005914;28;20226;-85
2022/01/05 01:24:27;;;;;;;0.23;0.13;;;9.40;78.50;9.40;94936.00;;;;5010540;28;20259;-85
2022/01/05 01:26:55;;;;;;;0.93;0.30;;;9.40;78.50;9.40;94933.00;;;;5003289;28;20218;-85
2022/01/05 01:29:23;;;;;;;0.20;0.10;;;9.30;78.70;9.40;94936.00;;;;4993799;28;20207;-86
2022/01/05 01:31:50;;;;;;;0.63;0.40;;;9.30;78.80;9.30;94941.00;;;;5010931;28;20202;-85
2022/01/05 01:34:17;;;;;;;0.83;0.30;;;9.30;78.80;9.30;94938.00;;;;5001109;28;20206;-85
2022/01/05 01:36:44;;;;;;;3.03;0.30;;;9.30;78.80;9.30;94939.00;;;;4992269;28;20234;-85
2022/01/05 01:39:11;;;;;;;0.20;0.20;;;9.30;78.70;9.30;94952.00;;;;4992452;28;20202;-85
2022/01/05 01:41:38;;;;;;;0.30;0.30;;;9.20;78.80;9.30;94956.00;;;;4991883;28;20242;-85
2022/01/05 01:44:08;;;;;;;0.50;0.50;;;9.20;78.90;9.20;94949.00;;;;5005609;28;20297;-85
2022/01/05 01:46:35;;;;;;;0.30;0.30;;;9.20;79.00;9.20;94953.00;;;;5004311;28;20278;-85
2022/01/05 01:49:02;;;;;;;0.40;0.40;;;9.20;79.20;9.20;94952.00;;;;5012228;28;20718;-85
2022/01/05 01:51:29;;;;;;;1.50;0.47;;;9.20;80.00;9.20;94956.00;;;;4992788;28;20195;-85
2022/01/05 01:53:56;;;;;;;0.50;0.50;;;9.20;79.30;9.20;94949.00;;;;4995471;28;20195;-85
2022/01/05 01:58:58;;;;;;;2.70;0.50;;;9.20;79.40;9.20;94922.00;;;;5032219;28;20216;-90
2022/01/05 02:01:34;;;;;;;2.37;0.67;;;9.10;79.30;9.20;94920.00;;;;5016117;28;20213;-91
2022/01/05 02:04:09;;;;;;;0.70;0.63;;;9.10;79.50;9.20;94937.00;;;;5008826;28;20218;-91
2022/01/05 02:06:37;;;;;;;0.40;0.40;;;9.10;79.80;9.20;94929.00;;;;4996881;28;20218;-91
2022/01/05 02:09:07;;;;;;;2.40;0.60;;;9.10;79.60;9.20;94928.00;;;;5015035;28;20303;-91
2022/01/05 02:11:39;;;;;;;0.70;0.70;;;9.10;79.70;9.20;94931.00;;;;5016926;28;20220;-92
2022/01/05 02:14:06;;;;;;;0.43;0.43;;;10.00;80.30;9.20;94935.00;;;;5003775;28;20195;-89
2022/01/05 02:16:42;;;;;;;0.50;0.50;;;10.60;80.70;9.20;94922.00;;;;5013552;28;20202;-91
2022/01/05 02:19:09;;;;;;;0.60;0.60;;;10.30;80.60;9.20;94937.00;;;;5016234;28;20209;-91
2022/01/05 02:21:40;;;;;;;0.30;0.30;;;9.00;79.70;9.20;94930.00;;;;5016380;28;20724;-91
2022/01/05 02:24:09;;;;;;;0.50;0.50;;;10.10;80.60;9.20;94935.00;;;;5017245;28;20229;-90
2022/01/05 02:26:39;;;;;;;0.80;0.40;;;7.70;79.20;9.20;94925.00;;;;5016995;28;20260;-92
2022/01/05 02:29:09;;;;;;;0.20;0.20;;;9.10;80.00;9.20;94950.00;;;;5016596;28;20732;-92
2022/01/05 02:31:36;;;;;;;0.37;0.20;;;9.10;79.70;9.20;94962.00;;;;5042396;23;20316;-85
2022/01/05 02:34:04;;;;;;;0.40;0.40;;;9.20;80.00;9.30;94965.00;;;;5032962;28;20343;-86
2022/01/05 02:36:32;;;;;;;0.30;0.30;;;9.20;80.00;9.20;94955.00;;;;5032799;28;20204;-86
2022/01/05 02:39:00;;;;;;;1.03;0.30;;;9.20;80.00;9.20;94967.00;;;;5033195;28;20193;-86
2022/01/05 02:41:27;;;;;;;0.40;0.40;;;9.70;80.20;9.20;94968.00;;;;5033219;28;20786;-87
2022/01/05 02:43:55;;;;;;;0.30;0.30;;;9.10;79.80;9.20;94930.00;;;;5032080;28;20284;-88
2022/01/05 02:46:24;;;;;;;0.50;0.30;;;10.20;80.70;9.30;94969.00;;;;5032585;28;20719;-88
2022/01/05 02:48:53;;;;;;;0.40;0.40;;;9.30;80.10;9.30;94974.00;;;;5033298;28;20201;-88
2022/01/05 02:51:22;;;;;;;0.40;0.40;;;9.20;80.00;9.30;94975.00;;;;5032788;28;20315;-88
2022/01/05 02:53:51;;;;;;;0.53;0.30;;;9.20;80.10;9.30;94971.00;;;;5032559;28;20185;-87
2022/01/05 02:56:20;;;;;;;0.40;0.40;;;9.20;80.10;9.30;94969.00;;;;5032506;28;20204;-88
2022/01/05 02:58:47;;;;;;;0.33;0.33;;;9.20;80.00;9.30;94951.00;;;;5032801;28;20200;-88
2022/01/05 03:01:14;;;;;;;0.50;0.50;;;10.70;81.00;9.30;94980.00;;;;5032563;28;20233;-89
2022/01/05 03:03:41;;;;;;;0.40;0.40;;;9.20;80.00;9.30;94979.00;;;;5031902;28;20643;-88
2022/01/05 03:06:08;;;;;;;0.97;0.40;;;9.50;80.00;9.20;94976.00;;;;5033397;28;20224;-88
2022/01/05 03:08:35;;;;;;;0.50;0.50;;;9.20;79.80;9.20;94977.00;;;;5032646;28;20670;-88
2022/01/05 03:11:03;;;;;;;0.67;0.40;;;9.10;79.70;9.20;94977.00;;;;5032864;28;20711;-88
2022/01/05 03:13:32;;;;;;;0.40;0.40;;;9.20;80.50;9.20;94981.00;;;;5032710;28;20205;-88
2022/01/05 03:15:59;;;;;;;0.57;0.57;;;9.10;80.40;9.10;94980.00;;;;5031836;28;20285;-88
2022/01/05 03:18:26;;;;;;;0.90;0.60;;;9.10;79.90;9.10;94969.00;;;;5032533;28;20203;-88
2022/01/05 03:20:53;;;;;;;4.13;0.80;;;9.90;80.60;9.10;94958.00;;;;5032357;28;20225;-88
2022/01/05 03:23:20;;;;;;;0.60;0.60;;;9.10;80.20;9.10;94956.00;;;;5032504;28;20192;-88
2022/01/05 03:25:47;;;;;;;0.67;0.67;;;9.10;80.10;9.10;94970.00;;;;5032006;28;20201;-88
2022/01/05 03:28:14;;;;;;;0.63;0.63;;;9.10;80.20;9.20;94965.00;;;;5032371;28;20194;-87
2022/01/05 03:30:43;;;;;;;0.50;0.50;;;9.40;80.40;9.20;94972.00;;;;5029627;28;20239;-88
2022/01/05 03:33:11;;;;;;;0.90;0.90;;;9.10;80.20;9.20;94959.00;;;;5031512;28;20200;-88
2022/01/05 03:35:45;;;;;;;1.10;0.60;;;9.10;80.20;9.20;94964.00;;;;5032122;28;20733;-87
2022/01/05 03:38:15;;;;;;;2.20;0.80;;;9.10;80.20;9.20;94968.00;;;;5031824;28;20196;-87
2022/01/05 03:40:43;;;;;;;0.60;0.60;;;9.10;80.20;9.20;94968.00;;;;5032292;28;20229;-88
2022/01/05 03:43:12;;;;;;;1.80;0.80;;;9.10;80.30;9.20;94970.00;;;;5031810;28;20808;-88
2022/01/05 03:45:40;;;;;;;0.70;0.70;;;9.10;80.20;9.20;94971.00;;;;5031810;28;20197;-88
2022/01/05 03:48:12;;;;;;;0.80;0.60;;;9.10;80.20;9.20;94979.00;;;;5032279;28;20197;-88
2022/01/05 03:50:40;;;;;;;0.90;0.50;;;9.10;80.00;9.10;94972.00;;;;5032505;28;20248;-88
2022/01/05 03:53:09;;;;;;;0.50;0.50;;;9.30;80.00;9.10;94970.00;;;;5031943;28;20253;-88
2022/01/05 03:55:38;;;;;;;0.93;0.40;;;9.10;79.90;9.10;94958.00;;;;5028281;28;20667;-86
2022/01/05 03:58:06;;;;;;;0.60;0.60;;;9.10;79.90;9.00;94979.00;;;;5031614;28;20190;-86
2022/01/05 04:00:38;;;;;;;0.50;0.50;;;9.00;79.80;9.00;94964.00;;;;5031879;28;20253;-86
2022/01/05 04:03:05;;;;;;;0.40;0.40;;;9.00;79.90;9.00;94973.00;;;;5032107;28;20277;-85
2022/01/05 04:05:34;;;;;;;1.37;0.57;;;9.00;79.90;9.00;94974.00;;;;5031725;28;20207;-85
2022/01/05 04:08:01;;;;;;;0.50;0.50;;;9.00;80.00;9.00;94962.00;;;;5031172;28;20200;-85
2022/01/05 04:10:28;;;;;;;0.90;0.70;;;9.00;80.00;9.00;94962.00;;;;5031536;28;20213;-85
2022/01/05 04:12:55;;;;;;;0.70;0.70;;;9.00;80.90;9.00;94968.00;;;;5030918;28;20204;-85
2022/01/05 04:15:23;;;;;;;0.50;0.50;;;9.00;80.40;9.00;94968.00;;;;5030356;28;20204;-86
2022/01/05 04:17:50;;;;;;;0.40;0.40;;;9.00;80.40;9.00;94971.00;;;;5012523;28;20198;-85
2022/01/05 04:20:18;;;;;;;0.50;0.50;;;9.00;80.50;9.00;94970.00;;;;5031519;28;20304;-86
2022/01/05 04:22:47;;;;;;;1.27;0.50;;;9.00;80.50;9.00;94977.00;;;;5030869;28;20643;-86
2022/01/05 04:25:15;;;;;;;0.53;0.53;;;9.30;80.50;9.00;94972.00;;;;5030302;28;20197;-85
2022/01/05 04:27:42;;;;;;;0.70;0.70;;;8.90;80.30;9.00;94965.00;;;;5030631;28;20202;-86
2022/01/05 04:30:12;;;;;;;0.50;0.50;;;9.00;80.40;9.00;94973.00;;;;5031416;28;20323;-87
2022/01/05 04:32:40;;;;;;;0.60;0.60;;;9.00;80.50;9.00;94973.00;;;;5028281;28;20205;-86
2022/01/05 04:35:11;;;;;;;0.30;0.30;;;9.00;80.60;9.00;94974.00;;;;5030607;28;20577;-87
2022/01/05 04:37:38;;;;;;;0.60;0.60;;;9.00;80.60;9.00;94980.00;;;;5032088;28;20210;-87
2022/01/05 04:40:08;;;;;;;0.90;0.57;;;9.00;80.70;9.00;94971.00;;;;5031738;28;20691;-87
2022/01/05 04:42:35;;;;;;;1.23;0.70;;;9.00;81.40;9.00;94971.00;;;;5029181;28;20575;-86
2022/01/05 04:45:03;;;;;;;0.30;0.30;;;8.90;80.60;9.00;94963.00;;;;5030477;28;20842;-86
2022/01/05 04:47:30;;;;;;;1.60;0.53;;;9.00;80.60;9.00;94967.00;;;;5030684;28;20197;-86
2022/01/05 04:49:57;;;;;;;0.90;0.50;;;9.00;80.50;9.00;94973.00;;;;5031106;28;20227;-86
2022/01/05 04:52:24;;;;;;;1.30;0.50;;;9.00;80.50;9.00;94965.00;;;;5030284;28;20193;-87
2022/01/05 04:54:52;;;;;;;0.30;0.30;;;9.00;80.50;9.00;94961.00;;;;5030355;28;20199;-86
2022/01/05 04:57:20;;;;;;;0.20;0.20;;;9.00;80.50;9.00;94962.00;;;;5031110;28;20204;-87
2022/01/05 04:59:47;;;;;;;1.20;0.17;;;8.90;81.30;9.00;94969.00;;;;5031186;28;20212;-86
2022/01/05 05:02:15;;;;;;;0.20;0.20;;;8.90;80.70;9.00;94967.00;;;;5030190;28;20224;-86
2022/01/05 05:04:42;;;;;;;0.10;0.10;;;8.90;80.70;8.90;94968.00;;;;5030759;28;20201;-87
2022/01/05 05:07:10;;;;;;;0.17;0.10;;;8.90;80.70;9.00;94969.00;;;;5030821;28;20193;-86
2022/01/05 05:09:37;;;;;;;0.13;0.00;;;8.90;80.60;8.90;94971.00;;;;5030112;28;20280;-86
2022/01/05 05:12:05;;;;;;;0.47;0.30;;;9.00;80.40;8.90;94967.00;;;;5030427;28;20204;-86
2022/01/05 05:14:34;;;;;;;0.00;0.00;;;8.90;80.30;8.90;94978.00;;;;5030530;28;20200;-86
2022/01/05 05:17:01;;;;;;;0.10;0.10;;;8.90;80.30;8.90;94965.00;;;;5030414;28;20679;-87
2022/01/05 05:19:28;;;;;;;0.20;0.10;;;8.90;80.40;8.80;94961.00;;;;5030545;28;20582;-87
2022/01/05 05:21:55;;;;;;;0.00;0.00;;;8.80;80.50;8.80;94965.00;;;;5030845;28;20845;-86
2022/01/05 05:24:22;;;;;;;0.23;0.00;;;8.80;80.60;8.80;94968.00;;;;5031698;28;20197;-86
2022/01/05 05:26:50;;;;;;;0.30;0.10;;;8.80;80.50;8.80;94978.00;;;;5032084;28;20347;-86
2022/01/05 05:29:17;;;;;;;0.83;0.00;;;8.80;81.20;8.80;94979.00;;;;5033560;28;20284;-86
2022/01/05 05:31:45;;;;;;;0.30;0.00;;;8.80;80.50;8.90;94984.00;;;;5025126;28;20854;-86
2022/01/05 05:34:12;;;;;;;0.00;0.00;;;8.80;81.30;8.80;94973.00;;;;5034657;28;20195;-87
2022/01/05 05:36:39;;;;;;;0.10;0.10;;;8.80;80.60;8.90;94975.00;;;;5034512;28;20208;-86
2022/01/05 05:39:06;;;;;;;0.10;0.10;;;8.80;80.70;8.80;94984.00;;;;5034123;28;20205;-86
2022/01/05 05:41:33;;;;;;;0.50;0.20;;;8.80;80.80;8.80;94982.00;;;;5022077;28;20232;-86
2022/01/05 05:44:00;;;;;;;0.07;0.07;;;8.80;80.80;8.80;94980.00;;;;5035590;28;20296;-86
2022/01/05 05:46:29;;;;;;;0.10;0.10;;;8.80;80.90;8.90;94990.00;;;;5034784;28;20543;-86
2022/01/05 05:48:57;;;;;;;0.03;0.00;;;8.80;80.90;8.90;94988.00;;;;5034858;28;20735;-87
2022/01/05 05:51:24;;;;;;;0.10;0.10;;;8.80;80.80;8.90;94990.00;;;;5033727;28;20630;-86
2022/01/05 05:53:51;;;;;;;0.10;0.10;;;8.80;80.80;8.90;94982.00;;;;5033730;28;20193;-86
2022/01/05 05:56:18;;;;;;;0.00;0.00;;;8.80;80.80;8.90;94975.00;;;;5031115;28;20197;-86
2022/01/05 05:58:45;;;;;;;0.20;0.10;;;8.90;80.80;8.90;94988.00;;;;5034020;28;20203;-87
2022/01/05 06:01:12;;;;;;;0.00;0.00;;;8.90;80.70;8.90;94983.00;;;;5033910;28;20218;-87
2022/01/05 06:03:39;;;;;;;0.00;0.00;;;8.90;80.80;8.90;94996.00;;;;5029879;28;20198;-87
2022/01/05 06:06:08;;;;;;;1.60;0.00;;;8.80;80.90;8.90;94999.00;;;;5032980;28;20194;-87
2022/01/05 06:08:35;;;;;;;0.00;0.00;;;8.90;80.90;8.90;94992.00;;;;5033581;28;20547;-87
2022/01/05 06:11:02;;;;;;;0.47;0.10;;;8.90;80.90;8.90;95010.00;;;;5034198;28;20311;-88
2022/01/05 06:13:29;;;;;;;0.07;0.00;;;8.90;80.90;8.90;95000.00;;;;5034447;28;20699;-87
2022/01/05 06:15:56;;;;;;;0.00;0.00;;;8.90;80.90;8.90;94985.00;;;;5032455;28;20201;-86
2022/01/05 06:18:23;;;;;;;0.17;0.00;;;8.90;81.00;8.90;94984.00;;;;5014425;28;20285;-87
2022/01/05 06:20:50;;;;;;;0.10;0.03;;;8.90;80.90;8.90;94979.00;;;;5023558;28;20213;-87
2022/01/05 06:23:18;;;;;;;0.77;0.00;;;9.00;81.00;8.90;94972.00;;;;5033313;28;20231;-88
2022/01/05 06:25:45;;;;;;;0.10;0.10;;;8.90;80.90;8.90;94989.00;;;;5032865;28;20208;-88
2022/01/05 06:28:12;;;;;;;0.00;0.00;;;8.90;80.90;8.90;94969.00;;;;5033355;28;20227;-86
2022/01/05 06:30:40;;;;;;;0.00;0.00;;;8.90;80.90;8.90;94982.00;;;;5032681;28;20225;-87
2022/01/05 06:33:08;;;;;;;0.00;0.00;;;8.90;80.80;8.80;94986.00;;;;5033030;28;20201;-87
2022/01/05 06:35:36;;;;;;;1.50;0.00;;;8.90;80.90;8.80;94977.00;;;;5032353;28;20575;-86
2022/01/05 06:38:03;;;;;;;0.43;0.10;;;8.90;80.90;8.80;94976.00;;;;5032563;28;20208;-86
2022/01/05 06:40:32;;;;;;;0.10;0.10;;;8.90;80.90;8.90;94969.00;;;;5033468;28;20586;-87
2022/01/05 06:43:01;;;;;;;0.00;0.00;;;8.90;80.80;8.90;94970.00;;;;5033083;28;20221;-87
2022/01/05 06:45:29;;;;;;;0.00;0.00;;;8.90;80.80;8.90;94979.00;;;;5032187;28;20581;-86
2022/01/05 06:47:56;;;;;;;0.50;0.00;;;8.90;80.90;8.80;94966.00;;;;5033337;28;20670;-87
2022/01/05 06:50:23;;;;;;;0.10;0.00;;;8.90;80.80;8.90;94969.00;;;;5032212;28;20217;-86
2022/01/05 06:52:50;;;;;;;0.23;0.00;;;8.80;80.70;8.90;94980.00;;;;5034235;28;20876;-86
2022/01/05 06:55:18;;;;;;;0.77;0.00;;;8.80;80.70;8.80;94984.00;;;;5036411;28;20265;-87
2022/01/05 06:57:47;;;;;;;0.00;0.00;;;8.80;81.30;8.80;94976.00;;;;5031169;28;20193;-86
2022/01/05 07:00:15;;;;;;;0.20;0.13;;;8.90;80.80;8.80;94974.00;;;;5032673;28;20236;-87
2022/01/05 07:02:42;;;;;;;0.00;0.00;;;8.80;80.70;8.80;94971.00;;;;5022238;28;20213;-87
2022/01/05 07:05:10;;;;;;;0.20;0.20;;;8.90;80.60;8.80;94992.00;;;;5031932;28;20201;-86
2022/01/05 07:07:37;;;;;;;0.90;0.47;;;8.90;80.60;8.70;95013.00;;;;5021221;28;20217;-88
2022/01/05 07:10:06;;;;;;;0.40;0.40;;;8.80;80.70;8.80;95023.00;;;;5032865;28;20225;-87
2022/01/05 07:12:33;;;;;;;0.80;0.30;;;8.80;80.70;8.80;95034.00;;;;5032228;28;20200;-86
2022/01/05 07:15:02;;;;;;;0.50;0.37;;;8.80;80.70;8.80;95014.00;;;;5031624;28;20200;-87
2022/01/05 07:17:29;;;;;;;0.20;0.20;;;8.90;81.50;8.80;95020.00;;;;5032602;28;20220;-87
2022/01/05 07:19:56;;;;;;;2.40;0.30;;;8.80;80.60;8.80;95036.00;;;;5032335;28;20308;-87
2022/01/05 07:22:23;;;;;;;2.20;0.50;;;8.90;80.80;8.80;95029.00;;;;5031903;28;20304;-87
2022/01/05 07:24:51;;;;;;;0.77;0.40;;;8.80;80.80;8.80;95032.00;;;;5031273;28;20542;-87
2022/01/05 07:27:18;;;;;;;0.33;0.30;;;8.80;80.90;8.80;95025.00;;;;5031943;28;20638;-87
2022/01/05 07:29:45;;;;;;;0.10;0.10;;;8.80;80.90;8.90;95033.00;;;;5031944;28;20304;-87
2022/01/05 07:32:13;;;;;;;1.43;0.27;;;8.90;81.00;8.90;95028.00;;;;5032288;28;20556;-85
2022/01/05 07:34:40;;;;;;;0.13;0.10;;;8.90;80.80;8.90;95052.00;;;;5032191;28;20212;-86
2022/01/05 07:37:09;;;;;;;0.10;0.07;;;8.90;80.80;8.90;95041.00;;;;5031298;28;20193;-87
2022/01/05 07:39:37;;;;;;;0.20;0.10;;;8.90;80.80;9.00;95051.00;;;;5031627;28;20205;-87
2022/01/05 07:42:05;;;;;;;0.20;0.10;;;8.90;80.80;9.00;95048.00;;;;5031904;28;20213;-87
2022/01/05 07:44:32;;;;;;;0.30;0.23;;;9.00;80.70;9.00;95046.00;;;;5034361;28;20201;-86
2022/01/05 07:46:59;;;;;;;0.30;0.10;;;9.00;80.80;9.00;95043.00;;;;5031795;28;20197;-87
2022/01/05 07:49:27;;;;;;;0.10;0.10;;;9.00;80.90;9.10;95044.00;;;;5031165;28;20575;-87
2022/01/05 07:51:54;;;;;;;0.33;0.17;;;9.00;80.90;9.10;95051.00;;;;5031199;28;20213;-86
2022/01/05 07:54:21;;;;;;;0.30;0.30;;;9.10;80.90;9.10;95058.00;;;;5030899;28;20194;-87
2022/01/05 07:56:48;;;;;;;0.50;0.50;;;9.10;80.80;9.10;95061.00;;;;5024206;28;20208;-86
2022/01/05 07:59:15;;;;;;;0.50;0.20;;;9.10;80.80;9.10;95058.00;;;;5023603;28;20194;-87
2022/01/05 08:01:43;;;;;;;0.30;0.20;;;9.10;80.80;9.10;95067.00;;;;5021410;28;20244;-85
2022/01/05 08:04:10;;;;;;;0.20;0.20;;;9.10;80.70;9.10;95084.00;;;;4999091;28;20228;-86
2022/01/05 08:06:38;;;;;;;0.07;0.07;;;9.10;80.80;9.10;95076.00;;;;5029422;28;20224;-86
2022/01/05 08:09:05;;;;;;;0.20;0.20;;;9.10;80.90;9.20;95078.00;;;;5030912;28;20202;-87
2022/01/05 08:11:32;;;;;;;0.70;0.10;;;9.80;81.30;9.20;95086.00;;;;5023464;28;20304;-86
2022/01/05 08:13:59;;;;;;;0.10;0.10;;;9.20;81.00;9.30;95103.00;;;;5031435;28;20750;-86
2022/01/05 08:16:26;;;;;;;0.30;0.30;;;10.00;81.50;9.30;95099.00;;;;5029637;28;20205;-86
2022/01/05 08:18:53;;;;;;;0.90;0.20;;;9.20;81.10;9.40;95088.00;;;;5030644;28;20193;-86
2022/01/05 08:21:22;;;;;;;0.10;0.10;;;9.30;81.10;9.40;95097.00;;;;5033012;28;20694;-86
2022/01/05 08:23:51;;;;;;;0.30;0.20;;;9.60;81.30;9.50;95104.00;;;;5030719;28;20228;-86
2022/01/05 08:26:18;;;;;;;0.00;0.00;;;9.60;81.30;9.60;95119.00;;;;5029548;28;20224;-86
2022/01/05 08:28:45;;;;;;;0.37;0.30;;;9.40;81.00;9.60;95111.00;;;;5028935;28;20232;-87
2022/01/05 08:31:13;;;;;;;2.73;0.40;;;10.00;81.20;9.60;95117.00;;;;5049830;23;20312;-84
2022/01/05 08:33:40;;;;;;;0.20;0.20;;;9.50;80.60;9.70;95123.00;;;;5040585;28;20662;-85
2022/01/05 08:36:08;;;;;;;0.10;0.10;;;9.50;80.30;9.60;95130.00;;;;5039920;28;20198;-85
2022/01/05 08:38:37;;;;;;;0.40;0.40;;;9.50;80.40;9.70;95135.00;;;;5032404;28;20197;-84
2022/01/05 08:41:05;;;;;;;0.17;0.17;;;9.50;80.50;9.70;95144.00;;;;5031890;28;20190;-84
2022/01/05 08:43:33;;;;;;;0.10;0.10;;;9.50;80.40;9.70;95153.00;;;;5033015;28;20235;-84
2022/01/05 08:46:01;;;;;;;0.03;0.03;;;9.50;80.40;9.70;95150.00;;;;5032057;28;20189;-85
2022/01/05 08:48:28;;;;;;;0.83;0.20;;;9.60;80.10;9.70;95166.00;;;;5032722;28;20227;-85
2022/01/05 08:50:55;;;;;;;0.10;0.10;;;9.60;80.20;9.70;95173.00;;;;5023506;28;20686;-86
2022/01/05 08:53:23;;;;;;;0.10;0.10;;;9.60;80.20;9.80;95190.00;;;;5032298;28;20217;-85
2022/01/05 08:55:51;;;;;;;0.63;0.10;;;9.50;80.10;9.80;95194.00;;;;5031617;28;20189;-84
2022/01/05 08:58:22;;;;;;;0.20;0.20;;;9.60;79.90;9.80;95202.00;;;;5032485;28;20218;-84
2022/01/05 09:00:49;;;;;;;0.13;0.13;;;9.60;80.00;9.80;95208.00;;;;5030220;28;20670;-84
2022/01/05 09:03:18;;;;;;;0.10;0.10;;;9.60;80.00;9.70;95206.00;;;;5035925;28;20229;-83
2022/01/05 09:05:46;;;;;;;0.20;0.20;;;9.60;79.70;9.70;95213.00;;;;5036120;28;20193;-84
2022/01/05 09:08:14;;;;;;;1.27;0.23;;;9.60;79.90;9.70;95215.00;;;;5035631;28;20217;-84
2022/01/05 09:10:42;;;;;;;0.20;0.20;;;9.60;80.10;9.70;95220.00;;;;5035746;28;20568;-84
2022/01/05 09:13:11;;;;;;;2.33;0.43;;;9.60;80.10;9.70;95224.00;;;;5035977;28;20193;-84
2022/01/05 09:15:40;;;;;;;0.17;0.17;;;9.60;80.10;9.70;95213.00;;;;5035762;28;20368;-85
2022/01/05 09:18:08;;;;;;;0.23;0.23;;;9.60;79.80;9.70;95219.00;;;;5033460;28;20220;-85
2022/01/05 09:20:35;;;;;;;0.20;0.20;;;9.60;79.80;9.60;95232.00;;;;5033518;28;20205;-85
2022/01/05 09:23:03;;;;;;;0.20;0.20;;;9.60;79.40;9.60;95249.00;;;;5038770;28;20228;-85
2022/01/05 09:25:30;;;;;;;0.30;0.30;;;9.50;79.70;9.60;95246.00;;;;5036034;28;20194;-85
2022/01/05 09:27:57;;;;;;;0.30;0.30;;;9.50;79.60;9.50;95253.00;;;;5038541;28;20682;-86
2022/01/05 09:30:25;;;;;;;0.40;0.40;;;9.50;79.70;9.50;95273.00;;;;5029861;28;20193;-84
2022/01/05 09:32:55;;;;;;;1.33;0.50;;;9.50;79.60;9.50;95282.00;;;;5034947;28;20644;-85
2022/01/05 09:35:24;;;;;;;0.50;0.50;;;9.50;79.50;9.50;95302.00;;;;5029374;28;20291;-85
2022/01/05 09:37:56;;;;;;;0.77;0.77;;;9.40;79.50;9.50;95302.00;;;;5033676;28;20901;-85
2022/01/05 09:43:09;;;;;;;0.97;0.93;;;9.40;79.40;9.40;95324.00;;;;5029786;28;20268;-85
2022/01/05 09:45:43;;;;;;;0.80;0.80;;;9.40;79.40;9.40;95324.00;;;;5032984;28;20237;-85
2022/01/05 09:48:28;;;;;;;0.60;0.60;;;9.40;79.20;9.30;95307.00;;;;5034607;28;20224;-86
2022/01/05 09:51:02;;;;;;;0.80;0.80;;;9.30;78.70;9.30;95313.00;;;;5035206;28;20249;-86
2022/01/05 09:53:32;;;;;;;0.93;0.93;;;9.30;78.60;9.30;95327.00;;;;5034759;28;20190;-83
2022/01/05 09:56:00;;;;;;;0.93;0.93;;;9.20;78.60;9.20;95341.00;;;;5033103;28;20247;-85
2022/01/05 09:58:30;;;;;;;3.40;1.10;;;9.20;79.10;9.20;95345.00;;;;5035818;28;20453;-85
2022/01/05 10:00:57;;;;;;;1.20;1.10;;;9.20;78.40;9.20;95351.00;;;;5033122;28;20247;-84
2022/01/05 10:03:26;;;;;;;1.03;1.00;;;9.10;78.80;9.20;95355.00;;;;5032706;28;20218;-84
2022/01/05 10:05:53;;;;;;;1.47;1.00;;;9.10;78.80;9.20;95349.00;;;;5032110;28;20185;-85
2022/01/05 10:08:20;;;;;;;0.83;0.80;;;9.00;78.50;9.20;95352.00;;;;5032238;28;20839;-84
2022/01/05 10:10:48;;;;;;;2.50;1.10;;;9.10;78.70;9.20;95347.00;;;;5033415;28;20604;-85
2022/01/05 10:13:16;;;;;;;1.57;0.80;;;9.20;78.30;9.20;95334.00;;;;5024736;28;20206;-85
2022/01/05 10:15:43;;;;;;;1.20;0.90;;;9.10;78.30;9.20;95350.00;;;;5015906;28;20240;-85
2022/01/05 10:18:13;;;;;;;1.30;1.20;;;9.10;78.40;9.30;95364.00;;;;5031330;28;20240;-85
2022/01/05 10:20:56;;;;;;;1.30;1.00;;;9.10;78.60;9.30;95358.00;;;;5032045;28;20595;-85
2022/01/05 10:23:35;;;;;;;1.17;1.00;;;9.20;78.50;9.40;95367.00;;;;5031964;28;20741;-85
2022/01/05 10:26:21;;;;;;;1.70;1.00;;;9.20;78.10;9.40;95376.00;;;;5032519;28;20288;-84
2022/01/05 10:28:49;;;;;;;0.93;0.90;;;9.30;78.30;9.50;95375.00;;;;5033157;28;20197;-85
2022/01/05 10:31:21;;;;;;;1.03;0.80;;;9.30;78.20;9.50;95377.00;;;;5031466;28;20680;-85
2022/01/05 10:33:48;;;;;;;1.27;0.97;;;9.30;77.60;9.50;95374.00;;;;5034624;28;20677;-86
2022/01/05 10:36:17;;;;;;;1.40;1.03;;;9.30;77.70;9.50;95380.00;;;;5037694;28;20204;-85
2022/01/05 10:38:56;;;;;;;1.47;1.00;;;9.40;77.10;9.60;95384.00;;;;5033303;28;20194;-85
2022/01/05 10:41:30;;;;;;;3.03;0.90;;;9.40;76.90;9.60;95383.00;;;;5033862;28;20208;-85
2022/01/05 10:44:19;;;;;;;1.30;1.20;;;9.40;77.30;9.60;95392.00;;;;5031975;28;20228;-85
2022/01/05 10:46:51;;;;;;;2.30;1.10;;;9.40;76.90;9.60;95401.00;;;;5032986;28;20694;-85
2022/01/05 10:49:30;;;;;;;1.20;1.00;;;9.40;76.70;9.60;95400.00;;;;5033057;28;20272;-85
2022/01/05 10:52:18;;;;;;;1.17;1.07;;;9.40;76.90;9.60;95386.00;;;;5025205;28;20197;-85
2022/01/05 10:54:45;;;;;;;1.80;1.20;;;9.40;76.90;9.70;95389.00;;;;5031168;28;20194;-85
2022/01/05 10:57:13;;;;;;;1.23;1.00;;;9.40;76.60;9.70;95394.00;;;;5033355;28;20219;-84
2022/01/05 10:59:43;;;;;;;1.17;1.00;;;9.40;76.70;9.70;95397.00;;;;5032681;28;20197;-85
2022/01/05 11:02:25;;;;;;;0.93;0.80;;;9.50;76.80;9.70;95404.00;;;;5031118;28;20655;-85
2022/01/05 11:04:56;;;;;;;3.33;1.00;;;9.50;76.10;9.70;95412.00;;;;5023727;28;20218;-85
2022/01/05 11:07:29;;;;;;;1.00;0.83;;;9.50;76.60;9.70;95418.00;;;;5023013;28;20264;-85
2022/01/05 11:10:00;;;;;;;4.33;1.00;;;9.50;76.20;9.70;95421.00;;;;5026747;28;20585;-85
2022/01/05 11:12:36;;;;;;;1.07;0.87;;;9.50;76.00;9.70;95420.00;;;;5028066;28;20189;-85
2022/01/05 11:15:27;;;;;;;0.80;0.80;;;9.50;74.70;9.60;95433.00;;;;5033319;28;20670;-85
2022/01/05 11:18:29;;;;;;;0.90;0.90;;;9.50;74.60;9.50;95443.00;;;;5033961;28;20224;-85